createdAt,value
2023-04-06T00:00:29.268Z,9.95
2023-04-06T00:01:00.984Z,9.75
2023-04-06T00:01:32.626Z,10.40
2023-04-06T00:02:04.369Z,10.32
2023-04-06T00:02:36.818Z,10.02
2023-04-06T00:03:08.674Z,10.18
2023-04-06T00:03:40.451Z,10.07
2023-04-06T00:04:12.364Z,9.82
2023-04-06T00:04:44.030Z,9.85
2023-04-06T00:05:15.960Z,10.38
2023-04-06T00:05:48.842Z,10.07
2023-04-06T00:06:21.172Z,10.30
2023-04-06T00:06:52.838Z,9.95
2023-04-06T00:07:24.559Z,10.18
2023-04-06T00:07:57.062Z,9.90
2023-04-06T00:08:29.573Z,10.15
2023-04-06T00:09:01.784Z,10.05
2023-04-06T00:09:33.429Z,10.80
2023-04-06T00:10:05.590Z,10.85
2023-04-06T00:10:37.454Z,11.85
2023-04-06T00:11:09.148Z,10.20
2023-04-06T00:11:41.008Z,10.88
2023-04-06T00:12:12.636Z,10.75
2023-04-06T00:12:44.302Z,10.90
2023-04-06T00:13:16.302Z,10.40
2023-04-06T00:13:47.973Z,10.77
2023-04-06T00:14:19.753Z,10.98
2023-04-06T00:14:51.557Z,10.98
2023-04-06T00:15:23.330Z,9.93
2023-04-06T00:15:54.996Z,10.77
2023-04-06T00:16:28.955Z,11.68
2023-04-06T00:17:02.596Z,12.80
2023-04-06T00:17:34.299Z,12.90
2023-04-06T00:18:06.231Z,12.93
2023-04-06T00:18:37.944Z,10.77
2023-04-06T00:19:09.796Z,13.63
2023-04-06T00:19:41.688Z,12.77
2023-04-06T00:20:13.365Z,12.27
2023-04-06T00:20:45.099Z,10.60
2023-04-06T00:21:16.984Z,11.32
2023-04-06T00:21:48.650Z,10.85
2023-04-06T00:22:20.430Z,10.80
2023-04-06T00:22:52.200Z,10.95
2023-04-06T00:23:23.950Z,10.25
2023-04-06T00:23:55.612Z,11.57
2023-04-06T00:24:27.266Z,12.25
2023-04-06T00:24:58.968Z,13.48
2023-04-06T00:25:30.677Z,13.55
2023-04-06T00:26:02.316Z,12.65
2023-04-06T00:26:34.042Z,12.30
2023-04-06T00:27:05.727Z,16.23
2023-04-06T00:27:37.747Z,15.25
2023-04-06T00:28:09.378Z,13.85
2023-04-06T00:28:41.157Z,12.90
2023-04-06T00:29:12.760Z,12.35
2023-04-06T00:29:45.507Z,22.85
2023-04-06T00:30:17.161Z,26.10
2023-04-06T00:30:49.168Z,30.38
2023-04-06T00:31:21.547Z,28.92
2023-04-06T00:31:53.228Z,24.83
2023-04-06T00:32:25.069Z,16.27
2023-04-06T00:32:56.800Z,16.88
2023-04-06T00:33:28.486Z,17.92
2023-04-06T00:34:00.176Z,16.63
2023-04-06T00:34:31.809Z,17.58
2023-04-06T00:35:04.830Z,16.05
2023-04-06T00:35:36.490Z,14.55
2023-04-06T00:36:08.478Z,22.42
2023-04-06T00:36:40.536Z,19.85
2023-04-06T00:37:13.059Z,21.00
2023-04-06T00:37:49.310Z,28.23
2023-04-06T00:38:21.009Z,32.15
2023-04-06T00:38:52.822Z,38.88
2023-04-06T00:39:24.498Z,40.42
2023-04-06T00:39:56.124Z,29.83
2023-04-06T00:40:29.664Z,31.15
2023-04-06T00:41:01.365Z,39.55
2023-04-06T00:41:33.252Z,34.45
2023-04-06T00:42:14.707Z,29.45
2023-04-06T00:42:46.420Z,29.95
2023-04-06T00:43:18.098Z,47.83
2023-04-06T00:43:49.723Z,52.55
2023-04-06T00:44:21.658Z,47.92
2023-04-06T00:44:58.423Z,101.93
2023-04-06T00:45:30.423Z,144.40
2023-04-06T00:46:02.242Z,146.85
2023-04-06T00:46:33.954Z,133.60
2023-04-06T00:47:05.735Z,120.22
2023-04-06T00:47:37.620Z,115.45
2023-04-06T00:48:10.236Z,96.53
2023-04-06T00:48:41.942Z,78.45
2023-04-06T00:49:13.612Z,69.00
2023-04-06T00:49:45.441Z,71.55
2023-04-06T00:50:18.198Z,53.78
2023-04-06T00:50:49.918Z,30.50
2023-04-06T00:51:21.636Z,27.15
2023-04-06T00:51:54.179Z,23.75
2023-04-06T00:52:26.314Z,19.20
2023-04-06T00:52:58.175Z,19.17
2023-04-06T00:53:29.797Z,17.85
2023-04-06T00:54:01.396Z,18.42
2023-04-06T00:54:33.067Z,15.60
2023-04-06T00:55:05.475Z,13.82
2023-04-06T00:55:37.235Z,13.80
2023-04-06T00:56:10.894Z,12.85
2023-04-06T00:56:43.907Z,11.50
2023-04-06T00:57:16.259Z,10.65
2023-04-06T00:57:48.509Z,11.45
2023-04-06T00:58:20.600Z,11.27
2023-04-06T00:58:52.477Z,11.13
2023-04-06T00:59:24.218Z,11.18
2023-04-06T00:59:56.288Z,11.30
2023-04-06T01:00:28.304Z,11.32
2023-04-06T01:01:00.261Z,11.63
2023-04-06T01:01:33.559Z,10.38
2023-04-06T01:02:05.471Z,11.50
2023-04-06T01:02:37.579Z,12.18
2023-04-06T01:03:09.478Z,16.38
2023-04-06T01:03:43.300Z,14.30
2023-04-06T01:04:15.110Z,13.25
2023-04-06T01:04:47.013Z,11.95
2023-04-06T01:05:18.766Z,13.68
2023-04-06T01:05:50.527Z,12.95
2023-04-06T01:06:22.652Z,13.50
2023-04-06T01:06:54.406Z,14.73
2023-04-06T01:07:26.105Z,17.15
2023-04-06T01:07:57.748Z,18.52
2023-04-06T01:08:29.991Z,19.02
2023-04-06T01:09:02.050Z,21.60
2023-04-06T01:09:34.208Z,23.75
2023-04-06T01:10:06.450Z,25.38
2023-04-06T01:10:38.071Z,33.83
2023-04-06T01:11:09.852Z,32.63
2023-04-06T01:11:41.484Z,34.22
2023-04-06T01:12:13.105Z,35.00
2023-04-06T01:12:44.762Z,34.70
2023-04-06T01:13:16.550Z,31.55
2023-04-06T01:13:48.435Z,30.88
2023-04-06T01:14:20.201Z,32.30
2023-04-06T01:14:52.069Z,31.63
2023-04-06T01:15:25.244Z,32.08
2023-04-06T01:15:57.062Z,43.35
2023-04-06T01:16:28.824Z,41.70
2023-04-06T01:17:01.714Z,40.03
2023-04-06T01:17:33.495Z,33.83
2023-04-06T01:18:07.668Z,31.08
2023-04-06T01:18:39.807Z,35.85
2023-04-06T01:19:14.773Z,33.65
2023-04-06T01:19:46.585Z,29.35
2023-04-06T01:20:18.360Z,27.50
2023-04-06T01:20:50.028Z,36.15
2023-04-06T01:21:21.762Z,38.88
2023-04-06T01:21:54.405Z,39.47
2023-04-06T01:22:26.313Z,37.50
2023-04-06T01:22:57.999Z,34.10
2023-04-06T01:23:29.882Z,34.08
2023-04-06T01:24:01.552Z,34.22
2023-04-06T01:24:33.827Z,32.42
2023-04-06T01:25:06.124Z,30.95
2023-04-06T01:25:37.889Z,30.40
2023-04-06T01:26:09.743Z,30.90
2023-04-06T01:26:41.370Z,34.47
2023-04-06T01:27:14.199Z,34.83
2023-04-06T01:27:46.018Z,37.13
2023-04-06T01:28:17.682Z,33.95
2023-04-06T01:28:49.461Z,36.70
2023-04-06T01:29:21.342Z,37.70
2023-04-06T01:29:53.028Z,40.00
2023-04-06T01:30:24.878Z,40.75
2023-04-06T01:30:56.504Z,43.47
2023-04-06T01:31:28.687Z,45.95
2023-04-06T01:32:00.540Z,48.35
2023-04-06T01:32:32.242Z,46.70
2023-04-06T01:33:04.317Z,51.40
2023-04-06T01:33:36.454Z,51.58
2023-04-06T01:34:08.179Z,56.10
2023-04-06T01:34:39.810Z,59.28
2023-04-06T01:35:11.868Z,60.08
2023-04-06T01:35:43.578Z,64.65
2023-04-06T01:36:16.170Z,67.47
2023-04-06T01:36:47.848Z,69.45
2023-04-06T01:37:19.525Z,65.15
2023-04-06T01:37:51.145Z,65.80
2023-04-06T01:38:22.873Z,65.15
2023-04-06T01:38:54.697Z,67.50
2023-04-06T01:39:27.123Z,68.88
2023-04-06T01:39:58.948Z,67.40
2023-04-06T01:40:30.625Z,63.10
2023-04-06T01:41:02.211Z,55.97
2023-04-06T01:41:33.926Z,54.70
2023-04-06T01:42:05.703Z,52.47
2023-04-06T01:42:37.443Z,50.13
2023-04-06T01:43:09.045Z,49.15
2023-04-06T01:43:41.055Z,47.58
2023-04-06T01:44:12.659Z,46.03
2023-04-06T01:44:44.474Z,38.72
2023-04-06T01:45:16.273Z,35.65
2023-04-06T01:45:48.036Z,34.55
2023-04-06T01:46:19.813Z,33.50
2023-04-06T01:46:51.743Z,31.77
2023-04-06T01:47:23.551Z,29.25
2023-04-06T01:47:55.269Z,29.52
2023-04-06T01:48:29.485Z,31.38
2023-04-06T01:49:01.497Z,29.48
2023-04-06T01:49:33.159Z,33.75
2023-04-06T01:50:07.241Z,36.60
2023-04-06T01:50:38.862Z,41.45
2023-04-06T01:51:10.562Z,42.00
2023-04-06T01:51:42.302Z,39.90
2023-04-06T01:52:14.015Z,41.70
2023-04-06T01:52:45.702Z,47.45
2023-04-06T01:53:17.528Z,49.60
2023-04-06T01:53:50.372Z,49.15
2023-04-06T01:54:22.200Z,48.13
2023-04-06T01:54:54.060Z,45.72
2023-04-06T01:55:25.895Z,44.08
2023-04-06T01:55:57.607Z,44.58
2023-04-06T01:56:29.324Z,44.67
2023-04-06T01:57:00.989Z,43.33
2023-04-06T01:57:32.610Z,39.35
2023-04-06T01:58:04.464Z,37.20
2023-04-06T01:58:36.490Z,36.95
2023-04-06T01:59:08.387Z,40.35
2023-04-06T01:59:40.341Z,36.67
2023-04-06T02:00:12.793Z,35.75
2023-04-06T02:00:44.487Z,34.88
2023-04-06T02:01:16.343Z,39.60
2023-04-06T02:01:48.101Z,42.67
2023-04-06T02:02:19.870Z,40.58
2023-04-06T02:02:51.730Z,39.15
2023-04-06T02:03:23.412Z,38.17
2023-04-06T02:03:55.477Z,40.63
2023-04-06T02:04:27.237Z,37.55
2023-04-06T02:04:58.853Z,35.63
2023-04-06T02:05:32.764Z,32.00
2023-04-06T02:06:05.063Z,30.02
2023-04-06T02:06:36.746Z,27.67
2023-04-06T02:07:08.429Z,26.27
2023-04-06T02:07:40.087Z,24.52
2023-04-06T02:08:11.693Z,23.70
2023-04-06T02:08:43.386Z,28.45
2023-04-06T02:09:15.760Z,25.63
2023-04-06T02:09:47.498Z,24.52
2023-04-06T02:10:19.262Z,26.48
2023-04-06T02:10:51.045Z,27.25
2023-04-06T02:11:22.706Z,24.40
2023-04-06T02:11:54.399Z,21.60
2023-04-06T02:12:26.084Z,18.80
2023-04-06T02:12:57.877Z,17.67
2023-04-06T02:13:29.566Z,17.70
2023-04-06T02:14:02.072Z,16.63
2023-04-06T02:14:33.928Z,16.23
2023-04-06T02:15:05.956Z,15.82
2023-04-06T02:15:37.592Z,17.05
2023-04-06T02:16:09.378Z,16.45
2023-04-06T02:16:41.134Z,16.40
2023-04-06T02:17:12.889Z,15.75
2023-04-06T02:17:44.681Z,12.70
2023-04-06T02:18:18.649Z,16.30
2023-04-06T02:18:51.986Z,15.18
2023-04-06T02:19:23.756Z,14.88
2023-04-06T02:19:55.409Z,15.75
2023-04-06T02:20:27.170Z,16.58
2023-04-06T02:20:58.783Z,16.88
2023-04-06T02:21:30.852Z,22.20
2023-04-06T02:22:02.791Z,23.55
2023-04-06T02:22:36.377Z,23.65
2023-04-06T02:23:08.229Z,25.08
2023-04-06T02:23:39.844Z,19.77
2023-04-06T02:24:11.565Z,18.92
2023-04-06T02:24:43.569Z,18.00
2023-04-06T02:25:15.324Z,19.92
2023-04-06T02:25:47.008Z,18.50
2023-04-06T02:26:18.627Z,18.38
2023-04-06T02:26:50.377Z,19.40
2023-04-06T02:27:22.008Z,18.88
2023-04-06T02:27:53.720Z,20.98
2023-04-06T02:28:25.482Z,22.35
2023-04-06T02:28:57.168Z,20.58
2023-04-06T02:29:28.793Z,18.63
2023-04-06T02:30:00.406Z,17.95
2023-04-06T02:30:33.730Z,18.05
2023-04-06T02:31:05.474Z,18.50
2023-04-06T02:31:37.206Z,20.60
2023-04-06T02:32:09.082Z,20.77
2023-04-06T02:32:40.826Z,21.05
2023-04-06T02:33:12.612Z,25.83
2023-04-06T02:33:44.342Z,31.10
2023-04-06T02:34:18.742Z,29.42
2023-04-06T02:34:50.653Z,31.20
2023-04-06T02:35:22.384Z,31.25
2023-04-06T02:35:54.085Z,30.92
2023-04-06T02:36:25.826Z,29.55
2023-04-06T02:36:57.577Z,29.35
2023-04-06T02:37:29.369Z,29.40
2023-04-06T02:38:01.114Z,28.20
2023-04-06T02:38:32.863Z,27.80
2023-04-06T02:39:04.598Z,28.67
2023-04-06T02:39:36.396Z,30.30
2023-04-06T02:40:08.780Z,36.20
2023-04-06T02:40:40.599Z,39.30
2023-04-06T02:41:12.269Z,39.28
2023-04-06T02:41:44.044Z,40.50
2023-04-06T02:42:16.642Z,35.45
2023-04-06T02:42:48.308Z,35.20
2023-04-06T02:43:20.803Z,36.67
2023-04-06T02:43:52.611Z,38.90
2023-04-06T02:44:24.376Z,34.38
2023-04-06T02:44:56.164Z,35.63
2023-04-06T02:45:27.817Z,36.65
2023-04-06T02:45:59.467Z,34.10
2023-04-06T02:46:31.213Z,35.13
2023-04-06T02:47:02.926Z,35.80
2023-04-06T02:47:35.155Z,35.53
2023-04-06T02:48:06.851Z,35.45
2023-04-06T02:48:38.578Z,33.97
2023-04-06T02:49:10.670Z,40.65
2023-04-06T02:49:42.511Z,32.25
2023-04-06T02:50:14.544Z,28.35
2023-04-06T02:50:46.165Z,23.27
2023-04-06T02:51:17.858Z,15.63
2023-04-06T02:51:49.595Z,16.08
2023-04-06T02:52:21.259Z,12.60
2023-04-06T02:52:54.187Z,14.73
2023-04-06T02:53:25.859Z,12.40
2023-04-06T02:53:57.675Z,13.18
2023-04-06T02:54:29.374Z,13.50
2023-04-06T02:55:01.064Z,15.10
2023-04-06T02:55:32.697Z,16.48
2023-04-06T02:56:04.451Z,14.02
2023-04-06T02:56:36.265Z,13.93
2023-04-06T02:57:09.203Z,13.20
2023-04-06T02:57:40.826Z,12.73
2023-04-06T02:58:12.818Z,12.40
2023-04-06T02:58:44.497Z,11.35
2023-04-06T02:59:16.231Z,12.70
2023-04-06T02:59:47.965Z,11.38
2023-04-06T03:00:20.366Z,12.13
2023-04-06T03:00:52.078Z,12.77
2023-04-06T03:01:23.919Z,14.15
2023-04-06T03:01:56.010Z,15.85
2023-04-06T03:02:27.733Z,13.55
2023-04-06T03:02:59.672Z,13.35
2023-04-06T03:03:31.854Z,14.55
2023-04-06T03:04:04.005Z,12.73
2023-04-06T03:04:35.673Z,12.98
2023-04-06T03:05:07.724Z,14.90
2023-04-06T03:05:39.452Z,15.77
2023-04-06T03:06:11.160Z,13.48
2023-04-06T03:06:42.874Z,13.15
2023-04-06T03:07:14.748Z,12.70
2023-04-06T03:07:46.471Z,12.40
2023-04-06T03:08:18.148Z,12.00
2023-04-06T03:08:49.793Z,11.95
2023-04-06T03:09:21.523Z,11.60
2023-04-06T03:09:53.176Z,10.98
2023-04-06T03:10:24.935Z,11.02
2023-04-06T03:10:56.583Z,11.52
2023-04-06T03:11:28.360Z,10.82
2023-04-06T03:12:00.045Z,13.48
2023-04-06T03:12:31.688Z,13.20
2023-04-06T03:13:03.361Z,15.35
2023-04-06T03:13:35.071Z,14.38
2023-04-06T03:14:06.892Z,14.43
2023-04-06T03:14:38.576Z,12.82
2023-04-06T03:15:11.689Z,13.02
2023-04-06T03:15:43.439Z,12.25
2023-04-06T03:16:15.191Z,11.63
2023-04-06T03:16:46.893Z,12.27
2023-04-06T03:17:18.518Z,12.20
2023-04-06T03:17:50.295Z,12.98
2023-04-06T03:18:27.022Z,12.35
2023-04-06T03:18:58.711Z,12.77
2023-04-06T03:19:30.440Z,15.02
2023-04-06T03:20:02.098Z,16.30
2023-04-06T03:20:33.878Z,12.93
2023-04-06T03:21:06.516Z,15.82
2023-04-06T03:21:38.228Z,16.15
2023-04-06T03:22:09.967Z,16.13
2023-04-06T03:22:41.578Z,15.82
2023-04-06T03:23:13.386Z,18.08
2023-04-06T03:23:45.087Z,17.42
2023-04-06T03:24:16.796Z,15.05
2023-04-06T03:24:48.471Z,13.52
2023-04-06T03:25:20.091Z,14.25
2023-04-06T03:25:51.887Z,13.52
2023-04-06T03:26:23.663Z,14.13
2023-04-06T03:26:56.361Z,14.73
2023-04-06T03:27:28.097Z,17.95
2023-04-06T03:27:59.854Z,18.33
2023-04-06T03:28:31.561Z,18.25
2023-04-06T03:29:03.245Z,21.23
2023-04-06T03:29:34.899Z,20.10
2023-04-06T03:30:07.586Z,15.57
2023-04-06T03:30:39.285Z,24.20
2023-04-06T03:31:11.257Z,23.33
2023-04-06T03:31:42.992Z,18.02
2023-04-06T03:32:14.663Z,16.10
2023-04-06T03:32:46.422Z,14.00
2023-04-06T03:33:18.074Z,13.40
2023-04-06T03:33:49.829Z,14.93
2023-04-06T03:34:21.728Z,15.40
2023-04-06T03:34:53.388Z,15.13
2023-04-06T03:35:25.703Z,17.08
2023-04-06T03:35:57.416Z,13.27
2023-04-06T03:36:29.148Z,15.07
2023-04-06T03:37:09.812Z,13.68
2023-04-06T03:37:42.299Z,15.85
2023-04-06T03:38:13.953Z,14.07
2023-04-06T03:38:45.816Z,14.00
2023-04-06T03:39:17.578Z,12.10
2023-04-06T03:39:49.296Z,12.93
2023-04-06T03:40:21.198Z,13.60
2023-04-06T03:40:52.849Z,12.70
2023-04-06T03:41:24.595Z,13.27
2023-04-06T03:41:56.448Z,13.45
2023-04-06T03:42:28.098Z,12.45
2023-04-06T03:43:00.536Z,13.55
2023-04-06T03:43:32.315Z,15.32
2023-04-06T03:44:04.024Z,15.60
2023-04-06T03:44:36.168Z,16.00
2023-04-06T03:45:08.511Z,21.40
2023-04-06T03:45:40.360Z,20.75
2023-04-06T03:46:12.147Z,20.83
2023-04-06T03:46:43.903Z,20.77
2023-04-06T03:47:15.707Z,20.98
2023-04-06T03:47:47.483Z,19.17
2023-04-06T03:48:19.355Z,20.42
2023-04-06T03:48:51.073Z,18.95
2023-04-06T03:49:22.860Z,18.42
2023-04-06T03:49:54.830Z,18.30
2023-04-06T03:50:27.138Z,23.33
2023-04-06T03:50:58.770Z,27.50
2023-04-06T03:51:30.570Z,26.13
2023-04-06T03:52:02.818Z,19.58
2023-04-06T03:52:35.463Z,18.48
2023-04-06T03:53:07.196Z,16.65
2023-04-06T03:53:38.942Z,18.88
2023-04-06T03:54:10.790Z,53.45
2023-04-06T03:54:42.616Z,50.20
2023-04-06T03:55:14.468Z,63.58
2023-04-06T03:55:46.165Z,36.95
2023-04-06T03:56:17.790Z,50.60
2023-04-06T03:56:49.460Z,44.15
2023-04-06T03:57:21.159Z,56.58
2023-04-06T03:57:52.964Z,37.40
2023-04-06T03:58:24.767Z,41.60
2023-04-06T03:58:56.734Z,70.38
2023-04-06T03:59:28.552Z,67.90
2023-04-06T04:00:00.813Z,91.38
2023-04-06T04:00:33.969Z,96.72
2023-04-06T04:01:05.977Z,81.25
2023-04-06T04:01:37.825Z,49.65
2023-04-06T04:02:09.570Z,45.70
2023-04-06T04:02:41.555Z,49.63
2023-04-06T04:03:13.349Z,47.30
2023-04-06T04:03:45.541Z,64.30
2023-04-06T04:04:17.343Z,60.65
2023-04-06T04:04:49.033Z,40.88
2023-04-06T04:05:20.799Z,33.10
2023-04-06T04:05:52.444Z,31.63
2023-04-06T04:06:24.304Z,38.47
2023-04-06T04:06:56.178Z,27.75
2023-04-06T04:07:27.952Z,29.13
2023-04-06T04:07:59.734Z,26.13
2023-04-06T04:08:31.496Z,27.55
2023-04-06T04:09:03.397Z,26.63
2023-04-06T04:09:35.056Z,26.45
2023-04-06T04:10:07.184Z,27.25
2023-04-06T04:10:38.968Z,27.35
2023-04-06T04:11:10.706Z,19.13
2023-04-06T04:11:42.479Z,19.95
2023-04-06T04:12:15.822Z,18.48
2023-04-06T04:12:47.470Z,16.85
2023-04-06T04:13:19.759Z,15.98
2023-04-06T04:13:51.455Z,16.50
2023-04-06T04:14:23.119Z,14.25
2023-04-06T04:14:54.815Z,13.63
2023-04-06T04:15:26.526Z,14.15
2023-04-06T04:15:58.424Z,14.13
2023-04-06T04:16:30.481Z,15.13
2023-04-06T04:17:02.140Z,20.52
2023-04-06T04:17:33.804Z,22.00
2023-04-06T04:18:05.593Z,24.33
2023-04-06T04:18:37.813Z,25.30
2023-04-06T04:19:09.881Z,23.55
2023-04-06T04:19:41.748Z,31.88
2023-04-06T04:20:14.089Z,31.55
2023-04-06T04:20:45.856Z,33.47
2023-04-06T04:21:17.505Z,40.13
2023-04-06T04:21:49.304Z,41.42
2023-04-06T04:22:20.975Z,33.13
2023-04-06T04:22:52.646Z,34.58
2023-04-06T04:23:24.326Z,34.78
2023-04-06T04:23:56.106Z,29.42
2023-04-06T04:24:27.770Z,26.50
2023-04-06T04:25:00.414Z,31.70
2023-04-06T04:25:32.068Z,28.55
2023-04-06T04:26:03.792Z,34.25
2023-04-06T04:26:35.479Z,33.33
2023-04-06T04:27:07.140Z,33.58
2023-04-06T04:27:38.807Z,31.85
2023-04-06T04:28:10.494Z,28.05
2023-04-06T04:28:42.157Z,29.95
2023-04-06T04:29:13.864Z,22.95
2023-04-06T04:29:45.578Z,19.52
2023-04-06T04:30:17.521Z,18.13
2023-04-06T04:30:49.132Z,22.33
2023-04-06T04:31:22.970Z,23.65
2023-04-06T04:31:54.942Z,25.38
2023-04-06T04:32:28.462Z,25.35
2023-04-06T04:33:00.184Z,24.75
2023-04-06T04:33:31.891Z,24.83
2023-04-06T04:34:03.633Z,24.70
2023-04-06T04:34:35.592Z,24.02
2023-04-06T04:35:07.661Z,22.90
2023-04-06T04:35:39.332Z,22.40
2023-04-06T04:36:11.296Z,22.45
2023-04-06T04:36:43.335Z,19.25
2023-04-06T04:37:15.070Z,25.42
2023-04-06T04:37:46.760Z,18.63
2023-04-06T04:38:19.022Z,18.10
2023-04-06T04:38:50.801Z,19.73
2023-04-06T04:39:22.436Z,21.85
2023-04-06T04:39:54.122Z,16.15
2023-04-06T04:40:25.918Z,15.10
2023-04-06T04:40:57.562Z,16.83
2023-04-06T04:41:29.308Z,20.70
2023-04-06T04:42:01.104Z,20.40
2023-04-06T04:42:32.978Z,18.90
2023-04-06T04:43:04.786Z,25.77
2023-04-06T04:43:36.519Z,32.40
2023-04-06T04:44:08.157Z,47.45
2023-04-06T04:44:39.948Z,49.22
2023-04-06T04:45:12.004Z,38.13
2023-04-06T04:45:43.721Z,51.08
2023-04-06T04:46:15.702Z,40.33
2023-04-06T04:46:47.357Z,33.38
2023-04-06T04:47:19.116Z,27.05
2023-04-06T04:47:50.925Z,32.20
2023-04-06T04:48:22.790Z,33.03
2023-04-06T04:48:54.571Z,32.53
2023-04-06T04:49:26.247Z,31.83
2023-04-06T04:49:58.016Z,29.15
2023-04-06T04:50:29.681Z,32.00
2023-04-06T04:51:01.893Z,27.13
2023-04-06T04:51:34.814Z,27.38
2023-04-06T04:52:06.554Z,23.35
2023-04-06T04:52:39.005Z,17.50
2023-04-06T04:53:10.689Z,17.52
2023-04-06T04:53:42.372Z,18.27
2023-04-06T04:54:13.986Z,17.67
2023-04-06T04:54:45.645Z,17.25
2023-04-06T04:55:18.531Z,15.48
2023-04-06T04:55:50.471Z,15.13
2023-04-06T04:56:22.140Z,14.55
2023-04-06T04:56:53.755Z,13.77
2023-04-06T04:57:25.494Z,14.18
2023-04-06T04:57:57.310Z,14.30
2023-04-06T04:58:28.990Z,13.70
2023-04-06T04:59:00.647Z,13.00
2023-04-06T04:59:32.466Z,12.77
2023-04-06T05:00:04.530Z,12.73
2023-04-06T05:00:36.260Z,13.07
2023-04-06T05:01:07.996Z,12.23
2023-04-06T05:01:51.722Z,12.98
2023-04-06T05:02:26.110Z,14.27
2023-04-06T05:02:58.012Z,14.80
2023-04-06T05:03:30.302Z,15.32
2023-04-06T05:04:02.038Z,16.77
2023-04-06T05:04:33.870Z,16.73
2023-04-06T05:05:06.288Z,16.55
2023-04-06T05:05:38.004Z,15.52
2023-04-06T05:06:10.939Z,17.60
2023-04-06T05:06:43.955Z,17.85
2023-04-06T05:07:16.555Z,20.35
2023-04-06T05:07:48.199Z,29.10
2023-04-06T05:08:19.850Z,35.03
2023-04-06T05:08:51.557Z,32.35
2023-04-06T05:09:23.188Z,34.15
2023-04-06T05:09:54.818Z,45.83
2023-04-06T05:10:26.466Z,51.28
2023-04-06T05:10:58.501Z,53.47
2023-04-06T05:11:30.193Z,98.45
2023-04-06T05:12:02.047Z,108.85
2023-04-06T05:12:33.750Z,105.70
2023-04-06T05:13:05.621Z,109.47
2023-04-06T05:13:37.317Z,108.60
2023-04-06T05:14:09.107Z,117.72
2023-04-06T05:14:41.491Z,120.07
2023-04-06T05:15:13.352Z,119.93
2023-04-06T05:15:45.117Z,131.30
2023-04-06T05:16:17.111Z,131.63
2023-04-06T05:16:48.815Z,105.43
2023-04-06T05:17:20.510Z,63.42
2023-04-06T05:17:52.417Z,46.42
2023-04-06T05:18:24.199Z,39.05
2023-04-06T05:18:57.885Z,28.23
2023-04-06T05:19:30.697Z,19.70
2023-04-06T05:20:03.251Z,19.48
2023-04-06T05:20:36.140Z,16.00
2023-04-06T05:21:07.909Z,14.10
2023-04-06T05:21:39.528Z,15.43
2023-04-06T05:22:11.211Z,14.35
2023-04-06T05:22:42.855Z,14.43
2023-04-06T05:23:14.495Z,13.65
2023-04-06T05:23:46.350Z,14.00
2023-04-06T05:24:17.996Z,16.25
2023-04-06T05:24:49.636Z,15.45
2023-04-06T05:25:21.312Z,21.75
2023-04-06T05:25:53.158Z,36.33
2023-04-06T05:26:25.497Z,36.33
2023-04-06T05:26:57.183Z,59.72
2023-04-06T05:27:28.992Z,129.40
2023-04-06T05:28:00.966Z,132.43
2023-04-06T05:28:33.551Z,133.43
2023-04-06T05:29:05.358Z,150.27
2023-04-06T05:29:37.043Z,180.73
2023-04-06T05:30:09.219Z,188.93
2023-04-06T05:30:41.225Z,168.73
2023-04-06T05:31:12.948Z,178.95
2023-04-06T05:31:44.690Z,200.55
2023-04-06T05:32:16.844Z,201.07
2023-04-06T05:32:49.031Z,186.82
2023-04-06T05:33:20.786Z,167.13
2023-04-06T05:33:52.421Z,151.55
2023-04-06T05:34:24.370Z,152.75
2023-04-06T05:34:57.129Z,122.55
2023-04-06T05:35:28.821Z,101.72
2023-04-06T05:36:02.185Z,93.05
2023-04-06T05:36:34.147Z,93.82
2023-04-06T05:37:06.044Z,92.60
2023-04-06T05:37:37.755Z,98.55
2023-04-06T05:38:11.397Z,101.18
2023-04-06T05:38:43.138Z,107.90
2023-04-06T05:39:14.892Z,115.85
2023-04-06T05:39:46.818Z,115.70
2023-04-06T05:40:18.630Z,112.70
2023-04-06T05:40:50.255Z,112.00
2023-04-06T05:41:22.006Z,103.50
2023-04-06T05:41:53.625Z,72.93
2023-04-06T05:42:25.250Z,53.80
2023-04-06T05:42:56.916Z,22.58
2023-04-06T05:43:28.650Z,17.17
2023-04-06T05:44:00.469Z,15.40
2023-04-06T05:44:32.280Z,15.80
2023-04-06T05:45:04.564Z,14.10
2023-04-06T05:45:36.418Z,13.00
2023-04-06T05:46:08.756Z,12.98
2023-04-06T05:46:41.026Z,13.40
2023-04-06T05:47:12.859Z,11.43
2023-04-06T05:47:45.250Z,13.00
2023-04-06T05:48:17.106Z,12.63
2023-04-06T05:48:48.873Z,13.57
2023-04-06T05:49:20.538Z,14.02
2023-04-06T05:49:52.330Z,17.08
2023-04-06T05:50:24.088Z,17.67
2023-04-06T05:50:55.918Z,18.45
2023-04-06T05:51:28.307Z,18.35
2023-04-06T05:51:59.951Z,15.98
2023-04-06T05:52:31.600Z,13.90
2023-04-06T05:53:03.292Z,13.80
2023-04-06T05:53:34.937Z,12.57
2023-04-06T05:54:06.620Z,13.95
2023-04-06T05:54:38.391Z,13.68
2023-04-06T05:55:11.692Z,13.25
2023-04-06T05:55:43.380Z,12.65
2023-04-06T05:56:15.077Z,13.80
2023-04-06T05:56:46.758Z,12.57
2023-04-06T05:57:18.686Z,12.70
2023-04-06T05:57:50.344Z,11.73
2023-04-06T05:58:21.994Z,13.20
2023-04-06T05:58:53.864Z,12.10
2023-04-06T05:59:26.001Z,12.68
2023-04-06T05:59:57.641Z,13.02
2023-04-06T06:00:29.360Z,13.57
2023-04-06T06:01:01.939Z,14.60
2023-04-06T06:01:35.608Z,14.05
2023-04-06T06:02:07.348Z,18.10
2023-04-06T06:02:40.651Z,17.42
2023-04-06T06:03:13.709Z,18.98
2023-04-06T06:03:45.664Z,16.98
2023-04-06T06:04:17.374Z,15.63
2023-04-06T06:04:49.504Z,15.88
2023-04-06T06:05:21.290Z,20.73
2023-04-06T06:05:52.974Z,23.35
2023-04-06T06:06:24.641Z,26.48
2023-04-06T06:06:56.412Z,29.15
2023-04-06T06:07:28.076Z,25.60
2023-04-06T06:07:59.703Z,25.05
2023-04-06T06:08:31.709Z,25.90
2023-04-06T06:09:04.569Z,30.52
2023-04-06T06:09:36.407Z,22.42
2023-04-06T06:10:09.008Z,16.33
2023-04-06T06:10:41.529Z,16.55
2023-04-06T06:11:13.200Z,16.38
2023-04-06T06:11:44.987Z,14.60
2023-04-06T06:12:16.710Z,15.05
2023-04-06T06:12:48.382Z,16.92
2023-04-06T06:13:20.120Z,19.50
2023-04-06T06:13:51.738Z,21.10
2023-04-06T06:14:23.764Z,25.17
2023-04-06T06:14:56.453Z,46.80
2023-04-06T06:15:28.560Z,95.13
2023-04-06T06:16:00.336Z,122.13
2023-04-06T06:16:32.145Z,133.73
2023-04-06T06:17:03.927Z,113.85
2023-04-06T06:17:37.240Z,92.43
2023-04-06T06:18:10.846Z,75.45
2023-04-06T06:18:42.723Z,119.53
2023-04-06T06:19:14.470Z,107.85
2023-04-06T06:19:46.349Z,88.40
2023-04-06T06:20:18.292Z,58.17
2023-04-06T06:20:50.057Z,53.80
2023-04-06T06:21:21.735Z,48.25
2023-04-06T06:21:53.486Z,51.78
2023-04-06T06:22:25.214Z,32.17
2023-04-06T06:22:57.157Z,41.97
2023-04-06T06:23:28.822Z,46.05
2023-04-06T06:24:01.094Z,34.97
2023-04-06T06:24:32.761Z,27.15
2023-04-06T06:25:04.727Z,30.60
2023-04-06T06:25:36.408Z,29.58
2023-04-06T06:26:08.066Z,28.25
2023-04-06T06:26:40.962Z,51.22
2023-04-06T06:27:12.674Z,56.50
2023-04-06T06:27:44.428Z,51.58
2023-04-06T06:28:16.146Z,47.67
2023-04-06T06:28:47.794Z,34.28
2023-04-06T06:29:19.573Z,27.33
2023-04-06T06:29:51.302Z,25.63
2023-04-06T06:30:23.481Z,25.88
2023-04-06T06:30:55.353Z,26.13
2023-04-06T06:31:27.260Z,25.20
2023-04-06T06:31:59.143Z,24.27
2023-04-06T06:32:30.910Z,20.48
2023-04-06T06:33:02.852Z,21.98
2023-04-06T06:33:34.676Z,26.23
2023-04-06T06:34:06.508Z,34.22
2023-04-06T06:34:38.215Z,40.08
2023-04-06T06:35:09.980Z,32.72
2023-04-06T06:35:41.696Z,25.98
2023-04-06T06:36:13.668Z,23.17
2023-04-06T06:36:47.854Z,24.63
2023-04-06T06:37:20.354Z,23.30
2023-04-06T06:37:52.001Z,21.73
2023-04-06T06:38:24.037Z,19.20
2023-04-06T06:38:55.962Z,15.77
2023-04-06T06:39:27.760Z,15.15
2023-04-06T06:39:59.527Z,15.80
2023-04-06T06:40:31.190Z,15.05
2023-04-06T06:41:02.860Z,13.40
2023-04-06T06:41:34.613Z,18.35
2023-04-06T06:42:06.834Z,20.63
2023-04-06T06:42:38.573Z,22.65
2023-04-06T06:43:10.382Z,25.20
2023-04-06T06:43:42.035Z,25.52
2023-04-06T06:44:13.782Z,21.75
2023-04-06T06:44:45.436Z,22.02
2023-04-06T06:45:17.441Z,19.80
2023-04-06T06:45:49.440Z,16.40
2023-04-06T06:46:21.870Z,14.13
2023-04-06T06:46:53.594Z,16.10
2023-04-06T06:47:26.699Z,13.27
2023-04-06T06:47:58.521Z,12.38
2023-04-06T06:48:30.583Z,12.52
2023-04-06T06:49:02.281Z,11.45
2023-04-06T06:49:33.911Z,12.85
2023-04-06T06:50:06.340Z,14.45
2023-04-06T06:50:37.968Z,14.48
2023-04-06T06:51:10.682Z,14.70
2023-04-06T06:51:42.397Z,17.70